Time;durP1;ratioP1;P1;durP2;ratioP2;P2;SDS_P1;SDS_P2;PMS_P1;PMS_P2;Temp;Humidity;BMP_temperature;BMP_pressure;BME280_temperature;BME280_humidity;BME280_pressure;Samples;Min_cycle;Max_cycle;Signal;HPM_P1;HPM_P2
2023/06/16 00:01:08;;;;;;;10.85;7.78;;;;;;;19.22;59.96;101216.44;4955413;29;20055;-45
2023/06/16 00:03:36;;;;;;;12.40;6.93;;;;;;;19.20;60.01;101207.56;4956125;29;20043;-46
2023/06/16 00:06:14;;;;;;;8.77;6.32;;;;;;;19.19;60.14;101203.97;4954588;28;20047;-45
2023/06/16 00:08:45;;;;;;;8.43;6.90;;;;;;;19.17;60.42;101199.94;4955648;29;20043;-46
2023/06/16 00:11:13;;;;;;;11.18;7.28;;;;;;;19.15;60.54;101199.53;4955615;29;20569;-46
2023/06/16 00:13:40;;;;;;;10.85;7.68;;;;;;;19.13;60.85;101196.31;4954197;29;20058;-47
2023/06/16 00:16:09;;;;;;;10.25;7.43;;;;;;;19.07;61.06;101192.25;4954923;29;20138;-46
2023/06/16 00:18:36;;;;;;;14.98;9.07;;;;;;;18.99;61.45;101191.41;4955438;29;20189;-45
2023/06/16 00:21:03;;;;;;;10.25;8.32;;;;;;;18.94;61.50;101193.78;4955297;29;20047;-46
2023/06/16 00:23:30;;;;;;;10.00;8.10;;;;;;;18.91;61.77;101194.56;4955489;29;20039;-45
2023/06/16 00:25:57;;;;;;;9.55;6.75;;;;;;;18.90;62.08;101190.16;4943107;29;20143;-47
2023/06/16 00:28:23;;;;;;;13.82;7.85;;;;;;;18.87;62.27;101193.75;4955301;29;20047;-47
2023/06/16 00:30:50;;;;;;;12.43;8.15;;;;;;;18.84;62.58;101184.91;4950967;29;20375;-45
2023/06/16 00:33:18;;;;;;;14.45;8.48;;;;;;;18.84;62.65;101184.91;4948999;29;20047;-45
2023/06/16 00:35:45;;;;;;;10.38;7.57;;;;;;;18.85;62.82;101182.91;4954150;28;20051;-47
2023/06/16 00:38:12;;;;;;;14.50;7.93;;;;;;;18.85;63.11;101185.69;4937715;29;20486;-47
2023/06/16 00:40:39;;;;;;;8.82;7.35;;;;;;;18.85;62.97;101178.09;4955230;29;20047;-45
2023/06/16 00:43:05;;;;;;;12.90;7.60;;;;;;;18.86;63.07;101178.91;4954966;29;20043;-45
2023/06/16 00:45:32;;;;;;;12.35;8.68;;;;;;;18.83;63.29;101177.69;4955163;29;20043;-46
2023/06/16 00:48:00;;;;;;;7.75;6.55;;;;;;;18.82;63.39;101183.69;4954078;29;20501;-45
2023/06/16 00:50:27;;;;;;;9.27;6.88;;;;;;;18.82;63.42;101175.28;4954932;29;20043;-45
2023/06/16 00:52:55;;;;;;;10.52;7.10;;;;;;;18.81;63.56;101180.09;4954879;29;20098;-45
2023/06/16 00:55:22;;;;;;;10.80;7.00;;;;;;;18.78;63.68;101175.25;4954911;29;20494;-47
2023/06/16 00:57:52;;;;;;;8.95;6.88;;;;;;;18.81;63.78;101171.66;4937758;29;20143;-45
2023/06/16 01:00:20;;;;;;;12.77;7.22;;;;;;;18.79;63.87;101176.06;4954614;29;20039;-45
2023/06/16 01:02:47;;;;;;;7.88;6.13;;;;;;;18.75;63.69;101167.63;4954407;29;20469;-45
2023/06/16 01:05:17;;;;;;;10.32;7.38;;;;;;;18.72;63.99;101164.78;4952947;28;20043;-46
2023/06/16 01:08:04;;;;;;;10.15;7.50;;;;;;;18.66;64.26;101161.56;4954606;29;20055;-47
2023/06/16 01:10:52;;;;;;;11.15;7.22;;;;;;;18.66;63.85;101155.94;4954558;29;20039;-45
2023/06/16 01:13:47;;;;;;;11.70;7.65;;;;;;;18.63;63.98;101156.72;4944475;29;20055;-45
2023/06/16 01:16:18;;;;;;;10.43;6.88;;;;;;;18.56;64.14;101153.84;4941825;29;20047;-46
2023/06/16 01:18:48;;;;;;;10.80;7.13;;;;;;;18.52;64.56;101155.84;4953589;28;20094;-45
2023/06/16 01:21:17;;;;;;;7.10;6.40;;;;;;;18.50;64.40;101158.22;4954342;29;20071;-45
2023/06/16 01:24:05;;;;;;;9.00;7.25;;;;;;;18.47;64.50;101163.75;4953340;29;20047;-46
2023/06/16 01:26:35;;;;;;;12.73;6.72;;;;;;;18.41;64.71;101163.31;4954721;29;20047;-45
2023/06/16 01:29:06;;;;;;;9.25;6.70;;;;;;;18.36;64.83;101155.28;4954320;29;20133;-46
2023/06/16 01:31:34;;;;;;;11.48;7.30;;;;;;;18.36;64.75;101162.88;4936949;29;20050;-46
2023/06/16 01:34:03;;;;;;;12.50;7.05;;;;;;;18.33;64.94;101163.63;4941403;29;20054;-46
2023/06/16 01:36:31;;;;;;;10.25;6.70;;;;;;;18.30;65.21;101164.41;4952737;28;20059;-45
2023/06/16 01:39:00;;;;;;;10.60;7.78;;;;;;;18.26;65.28;101158.78;4953081;29;20055;-45
2023/06/16 01:41:28;;;;;;;12.15;7.53;;;;;;;18.22;65.58;101157.94;4953800;28;20556;-45
2023/06/16 01:43:56;;;;;;;10.95;7.60;;;;;;;18.21;65.39;101165.53;4954105;29;20490;-48
2023/06/16 01:46:25;;;;;;;8.02;6.75;;;;;;;18.16;65.72;101153.91;4953680;29;20445;-46
2023/06/16 01:48:52;;;;;;;7.50;6.72;;;;;;;18.11;65.82;101160.66;4953931;29;20054;-45
2023/06/16 01:51:20;;;;;;;12.13;7.70;;;;;;;18.14;66.04;101156.28;4953655;29;20047;-46
2023/06/16 01:53:46;;;;;;;10.80;7.60;;;;;;;18.12;65.80;101169.88;4936783;29;20054;-45
2023/06/16 01:56:13;;;;;;;10.18;6.97;;;;;;;18.09;66.14;101160.25;4952506;29;20043;-47
2023/06/16 01:58:41;;;;;;;10.50;7.03;;;;;;;18.07;66.48;101161.81;4953862;29;20047;-47
2023/06/16 02:01:13;;;;;;;13.10;7.47;;;;;;;18.01;66.40;101168.94;4953085;29;20051;-45
2023/06/16 02:03:45;;;;;;;10.07;7.07;;;;;;;17.94;66.69;101158.50;4953797;29;20062;-45
2023/06/16 02:06:17;;;;;;;;;;;;;;;17.86;66.39;101165.22;4952516;28;20097;-45
2023/06/16 02:08:46;;;;;;;11.93;7.22;;;;;;;17.82;66.47;101160.78;4951700;28;19933;-47
2023/06/16 02:11:13;;;;;;;15.38;9.00;;;;;;;17.86;66.68;101165.22;4953612;29;20047;-45
2023/06/16 02:13:41;;;;;;;9.77;8.52;;;;;;;17.83;66.59;101157.56;4952505;29;20078;-45
2023/06/16 02:16:08;;;;;;;13.50;8.30;;;;;;;17.83;66.75;101153.97;4953096;29;20053;-49
2023/06/16 02:18:35;;;;;;;9.85;7.40;;;;;;;17.84;66.98;101152.78;4953476;29;20134;-45
2023/06/16 02:21:02;;;;;;;15.27;7.07;;;;;;;17.80;66.86;101147.13;4953408;29;20053;-46
2023/06/16 02:23:29;;;;;;;12.43;8.43;;;;;;;17.78;67.05;101151.50;4953294;29;20106;-45
2023/06/16 02:25:56;;;;;;;9.57;7.25;;;;;;;17.77;67.04;101155.50;4953299;29;20428;-45
2023/06/16 02:28:22;;;;;;;11.77;7.20;;;;;;;17.78;67.25;101148.72;4953087;28;20516;-46
2023/06/16 02:30:49;;;;;;;12.25;7.90;;;;;;;17.81;67.22;101147.94;4941308;29;20036;-46
2023/06/16 02:33:16;;;;;;;13.25;8.18;;;;;;;17.81;67.27;101147.94;4953031;28;20074;-46
2023/06/16 02:35:43;;;;;;;13.48;7.60;;;;;;;17.79;67.57;101155.94;4950955;28;20059;-46
2023/06/16 02:38:10;;;;;;;9.57;8.07;;;;;;;17.79;67.70;101145.50;4952254;28;20071;-45
2023/06/16 02:40:37;;;;;;;14.85;8.25;;;;;;;17.80;67.83;101149.94;4953237;29;20382;-46
2023/06/16 02:43:04;;;;;;;9.30;7.55;;;;;;;17.81;68.02;101145.16;4951902;29;20047;-45
2023/06/16 02:45:31;;;;;;;12.20;7.85;;;;;;;17.85;68.10;101138.38;4953111;29;20047;-46
2023/06/16 02:47:58;;;;;;;12.18;7.82;;;;;;;17.88;68.06;101148.00;4952257;29;20106;-45
2023/06/16 02:50:25;;;;;;;11.07;7.57;;;;;;;17.98;67.69;101152.91;4953235;29;20082;-45
2023/06/16 02:52:51;;;;;;;10.05;7.80;;;;;;;18.05;67.49;101137.00;4952792;29;20051;-45
2023/06/16 02:55:20;;;;;;;13.93;7.68;;;;;;;18.03;67.60;101142.16;4952909;29;20050;-47
2023/06/16 02:57:47;;;;;;;10.38;7.38;;;;;;;18.09;67.42;101149.03;4952982;29;20050;-48
2023/06/16 03:02:53;;;;;;;11.40;7.55;;;;;;;18.11;67.24;101149.44;4916084;23;20505;-47
2023/06/16 03:05:20;;;;;;;13.27;8.13;;;;;;;18.10;67.49;101149.84;4931817;29;20577;-45
2023/06/16 03:07:48;;;;;;;10.98;7.00;;;;;;;18.03;67.68;101138.56;4933585;29;20051;-45
2023/06/16 03:10:14;;;;;;;13.55;7.07;;;;;;;17.95;68.03;101142.50;4933801;29;20051;-45
2023/06/16 03:12:42;;;;;;;10.70;7.03;;;;;;;17.91;68.17;101130.44;4933878;29;20457;-45
2023/06/16 03:15:08;;;;;;;12.13;7.88;;;;;;;17.85;68.33;101141.19;4933665;29;20051;-45
2023/06/16 03:17:36;;;;;;;9.13;7.00;;;;;;;17.84;68.37;101135.97;4933410;29;20047;-45
2023/06/16 03:20:04;;;;;;;10.50;7.60;;;;;;;17.79;68.47;101142.72;4934099;29;20040;-45
2023/06/16 03:22:31;;;;;;;12.02;8.68;;;;;;;17.72;68.58;101137.06;4932848;29;20514;-45
2023/06/16 03:25:02;;;;;;;12.68;8.45;;;;;;;17.67;68.73;101130.97;4933501;29;20139;-47
2023/06/16 03:27:29;;;;;;;12.95;8.30;;;;;;;17.60;68.87;101123.34;4933660;29;20871;-45
2023/06/16 03:29:57;;;;;;;13.45;9.25;;;;;;;17.54;69.05;101122.88;4933526;29;20054;-46
2023/06/16 03:32:24;;;;;;;10.90;7.95;;;;;;;17.47;69.29;101117.13;4933216;29;20044;-47
2023/06/16 03:34:51;;;;;;;15.70;8.82;;;;;;;17.44;69.41;101111.53;4931669;29;20078;-50
2023/06/16 03:37:18;;;;;;;12.43;8.85;;;;;;;17.41;69.32;101113.09;4916326;29;20054;-47
2023/06/16 03:39:45;;;;;;;14.85;8.88;;;;;;;17.37;69.53;101112.22;4928794;29;20067;-47
2023/06/16 03:42:12;;;;;;;11.70;9.73;;;;;;;17.37;69.69;101109.44;4937079;29;20044;-46
2023/06/16 03:44:38;;;;;;;15.73;9.20;;;;;;;17.38;69.47;101113.84;4936732;29;20201;-46
2023/06/16 03:47:06;;;;;;;11.57;8.57;;;;;;;17.36;69.54;101110.63;4937035;29;20099;-45
2023/06/16 03:49:33;;;;;;;15.57;8.45;;;;;;;17.38;69.43;101113.84;4936704;29;20040;-46
2023/06/16 03:51:59;;;;;;;12.82;9.13;;;;;;;17.38;69.52;101119.44;4937308;29;20040;-46
2023/06/16 03:54:26;;;;;;;12.93;9.25;;;;;;;17.37;69.55;101120.63;4936515;29;20047;-45
2023/06/16 03:56:53;;;;;;;14.93;8.48;;;;;;;17.32;69.71;101115.38;4935662;29;20047;-46
2023/06/16 03:59:20;;;;;;;14.20;10.05;;;;;;;17.28;69.80;101097.75;4936603;29;20103;-45
2023/06/16 04:01:50;;;;;;;11.65;9.02;;;;;;;17.25;70.05;101111.69;4946447;29;20051;-46
2023/06/16 04:04:17;;;;;;;12.20;9.50;;;;;;;17.23;69.98;101100.88;4954422;29;20086;-46
2023/06/16 04:06:44;;;;;;;14.30;8.98;;;;;;;17.22;70.09;101104.06;4938292;29;20047;-47
2023/06/16 04:09:11;;;;;;;14.95;9.68;;;;;;;17.21;69.97;101102.47;4955754;29;20047;-47
2023/06/16 04:11:40;;;;;;;12.98;10.18;;;;;;;17.24;69.93;101110.06;4955008;29;20442;-46
2023/06/16 04:14:09;;;;;;;11.63;9.13;;;;;;;17.23;70.18;101100.88;4955416;29;20458;-46
2023/06/16 04:16:37;;;;;;;17.95;10.07;;;;;;;17.23;70.21;101098.09;4955469;29;20051;-45
2023/06/16 04:19:06;;;;;;;14.18;9.05;;;;;;;17.23;70.24;101100.06;4955309;28;20046;-46
2023/06/16 04:21:33;;;;;;;15.65;9.95;;;;;;;17.24;70.26;101107.25;4955932;29;20488;-45
2023/06/16 04:24:01;;;;;;;18.85;10.90;;;;;;;17.25;70.39;101103.28;4955291;29;20039;-45
2023/06/16 04:26:28;;;;;;;16.30;10.20;;;;;;;17.21;70.60;101106.03;4955336;29;20051;-45
2023/06/16 04:28:56;;;;;;;18.05;10.75;;;;;;;17.24;70.64;101096.06;4954358;29;20102;-46
2023/06/16 04:31:22;;;;;;;14.00;11.40;;;;;;;17.21;70.65;101097.63;4955546;29;20048;-47
2023/06/16 04:33:49;;;;;;;15.55;11.30;;;;;;;17.21;70.85;101094.06;4955142;29;20053;-45
2023/06/16 04:36:19;;;;;;;13.30;10.68;;;;;;;17.23;70.79;101091.69;4935774;29;20059;-45
2023/06/16 04:38:46;;;;;;;16.13;11.52;;;;;;;17.26;70.95;101094.50;4954757;29;20039;-46
2023/06/16 04:41:13;;;;;;;13.75;10.30;;;;;;;17.25;70.87;101092.91;4955236;29;20039;-45
2023/06/16 04:43:40;;;;;;;14.88;10.77;;;;;;;17.31;70.94;101098.97;4954717;29;20572;-46
2023/06/16 04:46:07;;;;;;;14.02;10.27;;;;;;;17.35;71.29;101103.41;4954280;29;20043;-46
2023/06/16 04:48:35;;;;;;;17.88;11.02;;;;;;;17.39;71.07;101101.47;4954921;29;20052;-46
2023/06/16 04:51:02;;;;;;;13.00;10.02;;;;;;;17.41;70.99;101110.28;4955326;29;20107;-45
2023/06/16 04:53:29;;;;;;;14.80;9.55;;;;;;;17.48;71.04;101101.97;4953715;28;20047;-47
2023/06/16 04:55:55;;;;;;;14.27;9.90;;;;;;;17.60;70.76;101112.94;4954699;29;20133;-45
2023/06/16 04:58:22;;;;;;;12.38;9.13;;;;;;;17.64;70.77;101110.97;4954741;29;20528;-46
2023/06/16 05:00:50;;;;;;;14.25;9.10;;;;;;;17.73;70.75;101107.06;4954922;29;20050;-49
2023/06/16 05:03:17;;;;;;;13.48;10.02;;;;;;;17.79;70.64;101111.91;4953775;29;20047;-45
2023/06/16 05:05:44;;;;;;;12.48;9.38;;;;;;;17.81;70.82;101108.72;4953645;29;20580;-45
2023/06/16 05:08:11;;;;;;;13.32;9.35;;;;;;;17.88;70.68;101115.22;4954844;29;20043;-46
2023/06/16 05:10:38;;;;;;;13.90;10.05;;;;;;;17.96;70.83;101118.88;4954514;29;20036;-45
2023/06/16 05:13:06;;;;;;;16.85;9.80;;;;;;;17.99;70.95;101116.13;4954614;29;20047;-45
2023/06/16 05:15:33;;;;;;;15.18;9.05;;;;;;;18.01;70.88;101121.31;4954167;29;20387;-46
2023/06/16 05:18:00;;;;;;;14.23;10.35;;;;;;;18.04;71.10;101117.75;4954609;29;20086;-46
2023/06/16 05:20:27;;;;;;;10.45;8.85;;;;;;;18.06;71.10;101109.75;4953467;29;20052;-46
2023/06/16 05:22:53;;;;;;;16.83;10.88;;;;;;;18.01;71.08;101112.91;4954409;29;20457;-45
2023/06/16 05:25:20;;;;;;;10.25;8.00;;;;;;;18.05;71.16;101113.78;4954409;29;20099;-45
2023/06/16 05:27:47;;;;;;;12.88;8.45;;;;;;;18.09;71.39;101103.38;4954617;29;20065;-46
2023/06/16 05:30:14;;;;;;;10.68;8.23;;;;;;;18.11;71.15;101107.41;4954215;29;20405;-45
2023/06/16 05:32:41;;;;;;;10.60;7.80;;;;;;;18.17;71.29;101110.66;4954263;29;20050;-45
2023/06/16 05:35:08;;;;;;;11.20;7.63;;;;;;;18.19;71.36;101109.06;4951826;29;20590;-45
2023/06/16 05:37:35;;;;;;;12.00;9.20;;;;;;;18.16;71.46;101107.03;4946706;28;20301;-46
2023/06/16 05:40:02;;;;;;;12.07;7.85;;;;;;;18.10;71.70;101116.22;4953937;29;20125;-46
2023/06/16 05:42:29;;;;;;;12.32;8.52;;;;;;;18.11;72.04;101112.19;4954066;29;20138;-46
2023/06/16 05:44:56;;;;;;;9.52;8.13;;;;;;;18.14;71.92;101117.84;4953972;29;20051;-46
2023/06/16 05:47:22;;;;;;;11.70;9.35;;;;;;;18.18;72.12;101118.69;4954091;28;20133;-46
2023/06/16 05:49:50;;;;;;;9.55;8.15;;;;;;;18.23;72.18;101117.53;4953835;29;20055;-45
2023/06/16 05:52:17;;;;;;;11.40;9.18;;;;;;;18.31;72.54;101121.19;4953717;29;20509;-45
2023/06/16 05:54:46;;;;;;;11.73;9.18;;;;;;;18.39;72.46;101120.03;4952830;29;20568;-46
2023/06/16 05:57:13;;;;;;;15.98;10.98;;;;;;;18.43;72.53;101107.66;4953907;29;20377;-47
2023/06/16 05:59:41;;;;;;;11.38;8.98;;;;;;;18.50;72.74;101121.78;4953522;29;20054;-46
2023/06/16 06:02:07;;;;;;;13.00;9.52;;;;;;;18.55;72.72;101137.44;4953500;29;20051;-45
2023/06/16 06:04:38;;;;;;;10.77;8.95;;;;;;;18.57;72.81;101132.22;4952137;28;20868;-46
2023/06/16 06:07:05;;;;;;;12.57;9.20;;;;;;;18.60;72.84;101129.44;4953486;29;20422;-46
2023/06/16 06:09:32;;;;;;;11.73;8.52;;;;;;;18.62;72.79;101127.06;4953534;29;20043;-46
2023/06/16 06:11:58;;;;;;;15.40;9.60;;;;;;;18.67;73.26;101129.50;4952464;29;20106;-45
2023/06/16 06:14:25;;;;;;;12.77;9.18;;;;;;;18.71;73.02;101130.34;4953259;29;20109;-46
2023/06/16 06:16:52;;;;;;;11.63;9.23;;;;;;;18.79;72.76;101131.19;4953317;29;20042;-45
2023/06/16 06:19:19;;;;;;;11.10;8.70;;;;;;;18.78;72.65;101130.38;4953365;29;20054;-47
2023/06/16 06:21:46;;;;;;;11.32;8.90;;;;;;;18.77;73.08;101133.56;4953601;29;20051;-46
2023/06/16 06:24:14;;;;;;;11.20;8.70;;;;;;;18.78;73.07;101130.38;4953182;29;20046;-45
2023/06/16 06:26:43;;;;;;;10.35;9.05;;;;;;;18.82;72.88;101128.38;4953374;29;20051;-47
2023/06/16 06:29:10;;;;;;;10.27;7.90;;;;;;;18.81;72.82;101123.16;4952342;29;20050;-46
2023/06/16 06:31:37;;;;;;;11.88;8.82;;;;;;;18.83;72.90;101132.81;4953208;29;20051;-46
2023/06/16 06:34:03;;;;;;;9.43;8.43;;;;;;;18.89;72.85;101132.44;4953199;29;20133;-45
2023/06/16 06:36:30;;;;;;;11.68;8.95;;;;;;;18.87;72.99;101126.41;4951283;29;20047;-51
2023/06/16 06:38:57;;;;;;;14.35;9.95;;;;;;;18.87;72.92;101127.22;4953191;29;20035;-46
2023/06/16 06:41:26;;;;;;;12.65;8.60;;;;;;;18.84;73.02;101128.81;4953166;28;20450;-45
2023/06/16 06:43:53;;;;;;;13.40;8.65;;;;;;;18.84;73.07;101137.22;4953136;29;20050;-47
2023/06/16 06:46:20;;;;;;;14.55;8.57;;;;;;;18.83;73.34;101124.38;4952275;29;20051;-48
2023/06/16 06:48:47;;;;;;;11.15;8.40;;;;;;;18.79;73.16;101128.38;4935956;29;20062;-46
2023/06/16 06:51:14;;;;;;;11.43;7.07;;;;;;;18.79;73.28;101131.19;4935897;29;20055;-46
2023/06/16 06:53:43;;;;;;;13.32;8.18;;;;;;;18.79;73.27;101120.78;4953122;29;20058;-45
2023/06/16 06:56:10;;;;;;;11.90;8.55;;;;;;;18.79;73.17;101119.97;4952887;29;20587;-45
2023/06/16 06:58:37;;;;;;;13.00;7.88;;;;;;;18.77;73.14;101134.34;4953157;29;20039;-47
2023/06/16 07:01:04;;;;;;;10.40;8.45;;;;;;;18.82;73.53;101142.41;4935424;29;20082;-46
2023/06/16 07:03:33;;;;;;;11.15;7.35;;;;;;;18.89;73.31;101135.22;4952062;29;20527;-45
2023/06/16 07:06:00;;;;;;;10.70;7.45;;;;;;;19.02;73.11;101134.50;4948770;29;20445;-45
2023/06/16 07:08:27;;;;;;;10.05;7.90;;;;;;;19.10;73.28;101140.97;4935169;29;20050;-45
2023/06/16 07:10:53;;;;;;;9.20;7.25;;;;;;;19.15;72.94;101138.59;4935739;29;20047;-46
2023/06/16 07:13:21;;;;;;;7.90;6.90;;;;;;;19.14;72.74;101130.56;4951243;29;20055;-48
2023/06/16 07:15:48;;;;;;;11.40;7.70;;;;;;;19.18;72.91;101137.00;4954318;28;20051;-46
2023/06/16 07:18:15;;;;;;;8.90;7.32;;;;;;;19.23;72.69;101140.22;4956806;29;20102;-46
2023/06/16 07:20:42;;;;;;;10.85;7.13;;;;;;;19.24;72.53;101147.47;4955889;29;20103;-45
2023/06/16 07:23:09;;;;;;;8.98;6.75;;;;;;;19.24;72.53;101152.25;4956452;29;20090;-45
2023/06/16 07:25:38;;;;;;;8.90;6.72;;;;;;;19.21;72.55;101147.44;4956389;29;20047;-45
2023/06/16 07:28:07;;;;;;;8.10;6.78;;;;;;;19.19;72.24;101145.03;4956584;29;20051;-45
2023/06/16 07:30:34;;;;;;;14.18;7.28;;;;;;;19.24;72.34;101155.88;4956661;29;20043;-45
2023/06/16 07:33:01;;;;;;;8.73;7.15;;;;;;;19.27;72.47;101155.06;4956433;29;20055;-46
2023/06/16 07:35:28;;;;;;;7.75;6.70;;;;;;;19.37;72.46;101156.34;4955964;29;20420;-47
2023/06/16 07:37:54;;;;;;;11.07;7.07;;;;;;;19.42;72.26;101158.78;4955536;29;20187;-46
2023/06/16 07:40:21;;;;;;;10.60;6.88;;;;;;;19.51;71.76;101150.81;4953933;29;20662;-45
2023/06/16 07:42:48;;;;;;;9.25;7.57;;;;;;;19.58;71.52;101152.81;4954872;29;20475;-45
2023/06/16 07:45:17;;;;;;;8.50;6.70;;;;;;;19.69;71.71;101156.47;4956189;29;20054;-45
2023/06/16 07:47:48;;;;;;;10.50;6.93;;;;;;;19.86;71.24;101150.88;4956298;29;20043;-49
2023/06/16 07:50:15;;;;;;;7.70;5.70;;;;;;;20.08;71.37;101156.53;4956278;29;20809;-46
2023/06/16 07:52:42;;;;;;;8.73;7.10;;;;;;;20.28;71.09;101161.41;4954461;29;20539;-46
2023/06/16 07:55:12;;;;;;;8.55;6.07;;;;;;;20.48;71.14;101154.19;4944399;29;20039;-45
2023/06/16 07:57:39;;;;;;;11.63;6.20;;;;;;;20.70;70.64;101157.78;4955707;29;20039;-46
2023/06/16 08:00:13;;;;;;;9.90;6.38;;;;;;;21.09;70.65;101143.66;4956171;29;20051;-46
2023/06/16 08:02:40;;;;;;;10.60;6.53;;;;;;;21.83;70.43;101140.47;4955475;29;20061;-47
2023/06/16 08:05:08;;;;;;;7.57;5.40;;;;;;;22.63;69.53;101137.47;4954892;29;20433;-46
2023/06/16 08:07:35;;;;;;;6.93;4.75;;;;;;;23.29;67.84;101144.41;4955752;29;20036;-46
2023/06/16 08:10:03;;;;;;;7.03;6.05;;;;;;;23.76;66.31;101138.97;4952180;29;20055;-48
2023/06/16 08:12:32;;;;;;;8.00;5.20;;;;;;;24.08;64.76;101139.28;4937925;29;20067;-47
2023/06/16 08:14:59;;;;;;;6.53;4.03;;;;;;;24.50;63.34;101140.66;4947682;29;20066;-46
2023/06/16 08:17:26;;;;;;;5.35;4.15;;;;;;;24.92;61.67;101141.91;4955314;29;20055;-46
2023/06/16 08:19:53;;;;;;;4.38;3.80;;;;;;;25.35;59.69;101142.69;4955719;29;20090;-46
2023/06/16 08:22:20;;;;;;;4.70;3.50;;;;;;;25.68;58.75;101137.97;4955640;29;20114;-47
2023/06/16 08:24:47;;;;;;;6.88;3.50;;;;;;;25.72;57.01;101136.63;4952167;29;20054;-45
2023/06/16 08:27:14;;;;;;;5.35;3.70;;;;;;;25.64;55.94;101135.19;4954233;28;20047;-46
2023/06/16 08:29:41;;;;;;;4.90;4.03;;;;;;;25.48;55.79;101132.31;4955384;28;20055;-44
2023/06/16 08:32:08;;;;;;;5.22;4.07;;;;;;;25.10;55.12;101125.41;4938277;29;20057;-45
2023/06/16 08:34:36;;;;;;;5.05;3.97;;;;;;;24.67;55.63;101120.53;4953485;29;20086;-45
2023/06/16 08:37:03;;;;;;;3.65;3.20;;;;;;;24.28;55.92;101111.91;4954893;29;20505;-46
2023/06/16 08:39:43;;;;;;;7.25;3.88;;;;;;;23.97;56.15;101116.03;4955247;29;20054;-44
2023/06/16 08:42:13;;;;;;;6.57;3.30;;;;;;;23.91;56.13;101107.22;4955143;29;20437;-44
2023/06/16 08:44:40;;;;;;;3.55;3.05;;;;;;;23.67;56.06;101114.03;4954217;29;20047;-44
2023/06/16 08:47:08;;;;;;;3.45;3.08;;;;;;;23.32;56.30;101115.31;4955249;29;20039;-44
2023/06/16 08:49:35;;;;;;;6.70;3.67;;;;;;;23.08;56.86;101107.94;4954991;29;20043;-44
2023/06/16 08:52:03;;;;;;;3.53;3.22;;;;;;;23.16;57.16;101109.47;4954937;29;20083;-45
2023/06/16 08:54:37;;;;;;;6.90;3.15;;;;;;;23.41;56.83;101111.97;4954752;28;20047;-45
2023/06/16 08:57:07;;;;;;;4.55;3.25;;;;;;;23.32;56.94;101115.31;4954899;29;20047;-45
2023/06/16 08:59:34;;;;;;;4.65;3.08;;;;;;;23.22;56.77;101116.22;4954774;29;20134;-48
2023/06/16 09:02:01;;;;;;;3.70;3.33;;;;;;;23.18;56.47;101112.66;4954072;29;20066;-44
2023/06/16 09:04:33;;;;;;;3.25;2.55;;;;;;;23.17;56.60;101104.59;4952958;29;20039;-44
2023/06/16 09:07:00;;;;;;;4.05;2.90;;;;;;;23.32;56.39;101114.50;4954052;29;20055;-45
2023/06/16 09:09:27;;;;;;;3.63;2.90;;;;;;;23.46;56.21;101108.69;4954540;29;20814;-45
2023/06/16 09:12:08;;;;;;;4.63;2.95;;;;;;;23.89;55.72;101101.19;4954888;29;20050;-45
2023/06/16 09:14:38;;;;;;;4.97;3.08;;;;;;;24.09;55.02;101107.00;4953883;29;20757;-44
2023/06/16 09:17:07;;;;;;;4.23;2.63;;;;;;;24.21;54.66;101103.53;4951747;29;20039;-44
2023/06/16 09:19:48;;;;;;;3.22;2.90;;;;;;;24.43;54.34;101109.66;4953689;29;20050;-44
2023/06/16 09:22:18;;;;;;;3.88;2.75;;;;;;;25.00;53.31;101103.72;4952715;29;20043;-45
2023/06/16 09:24:56;;;;;;;5.38;3.38;;;;;;;25.63;52.21;101108.06;4953556;29;20063;-45
2023/06/16 09:27:41;;;;;;;2.53;2.33;;;;;;;25.72;51.08;101099.75;4936845;29;20071;-44
2023/06/16 09:30:08;;;;;;;3.05;2.78;;;;;;;25.42;50.52;101102.84;4954129;29;20553;-44
2023/06/16 09:32:45;;;;;;;5.82;3.83;;;;;;;24.98;51.01;101094.88;4935294;29;20079;-44
2023/06/16 09:35:20;;;;;;;4.55;3.20;;;;;;;24.67;51.37;101097.88;4934024;29;20051;-45
2023/06/16 09:37:48;;;;;;;3.47;3.13;;;;;;;24.91;51.46;101101.50;4930030;29;20055;-45
2023/06/16 09:40:16;;;;;;;3.30;2.67;;;;;;;25.46;50.35;101103.59;4917606;29;20099;-44
2023/06/16 09:42:46;;;;;;;4.35;3.33;;;;;;;25.68;49.79;101099.03;4933318;29;20043;-45
2023/06/16 09:45:16;;;;;;;3.35;3.05;;;;;;;25.66;49.36;101098.69;4934876;29;20142;-45
2023/06/16 09:47:47;;;;;;;5.75;2.78;;;;;;;25.98;49.06;101101.56;4934949;29;20450;-47
2023/06/16 09:50:15;;;;;;;3.88;3.28;;;;;;;26.27;48.19;101100.88;4933908;29;20122;-45
2023/06/16 09:52:44;;;;;;;6.32;3.33;;;;;;;25.96;48.10;101098.38;4924146;29;20047;-47
2023/06/16 09:55:12;;;;;;;4.68;3.25;;;;;;;25.50;48.50;101098.63;4934737;29;20371;-45
2023/06/16 09:57:45;;;;;;;3.78;2.85;;;;;;;25.05;48.93;101091.88;4934316;29;20072;-45
2023/06/16 10:00:17;;;;;;;6.15;3.38;;;;;;;24.66;49.19;101093.44;4918060;29;20091;-44
2023/06/16 10:02:50;;;;;;;8.38;3.47;;;;;;;24.34;49.98;101096.03;4934293;29;20043;-45
2023/06/16 10:05:19;;;;;;;4.25;3.20;;;;;;;24.02;50.36;101084.41;4934569;29;20418;-44
2023/06/16 10:07:51;;;;;;;6.63;3.05;;;;;;;23.77;50.61;101087.66;4934338;29;20134;-44
2023/06/16 10:10:25;;;;;;;6.60;2.85;;;;;;;23.65;50.94;101082.56;4933624;29;20131;-44
2023/06/16 10:12:54;;;;;;;3.15;2.85;;;;;;;23.49;51.15;101086.03;4933265;29;20058;-44
2023/06/16 10:15:31;;;;;;;8.40;3.45;;;;;;;23.32;51.36;101080.59;4934618;29;20080;-46
2023/06/16 10:18:03;;;;;;;4.95;3.22;;;;;;;23.12;52.00;101083.28;4925319;29;20442;-44
2023/06/16 10:20:37;;;;;;;6.20;3.10;;;;;;;22.98;52.38;101083.47;4932556;29;20047;-44
2023/06/16 10:23:04;;;;;;;4.55;3.58;;;;;;;22.90;52.86;101084.78;4934045;29;20135;-44
2023/06/16 10:25:33;;;;;;;4.75;2.92;;;;;;;22.81;53.24;101078.81;4933780;29;20051;-46
2023/06/16 10:28:05;;;;;;;6.45;3.17;;;;;;;22.74;53.39;101081.72;4905285;29;20499;-45
2023/06/16 10:30:32;;;;;;;7.25;3.10;;;;;;;22.69;53.82;101085.00;4932352;29;20183;-44
2023/06/16 10:32:59;;;;;;;6.32;4.07;;;;;;;22.69;53.80;101082.19;4934157;29;20048;-44
2023/06/16 10:35:26;;;;;;;5.95;3.60;;;;;;;22.68;54.23;101078.56;4933922;29;20054;-44
2023/06/16 10:37:55;;;;;;;4.40;2.90;;;;;;;22.69;53.90;101076.53;4934284;29;20055;-44
2023/06/16 10:40:24;;;;;;;3.80;3.08;;;;;;;22.68;54.02;101078.56;4934067;29;20154;-45
2023/06/16 10:42:57;;;;;;;4.50;2.80;;;;;;;22.60;54.35;101076.19;4933069;29;20077;-44
2023/06/16 10:45:28;;;;;;;6.10;3.00;;;;;;;22.58;54.55;101082.28;4921452;29;20048;-44
2023/06/16 10:47:56;;;;;;;2.72;2.30;;;;;;;22.58;54.61;101081.47;4932958;29;20098;-44
2023/06/16 10:50:59;;;;;;;4.75;2.83;;;;;;;22.76;54.42;101087.75;4933388;29;20111;-44
2023/06/16 10:53:26;;;;;;;3.72;2.58;;;;;;;22.95;54.50;101078.66;4910867;29;20047;-44
2023/06/16 10:56:05;;;;;;;5.70;2.80;;;;;;;23.09;53.96;101084.13;4933946;29;20070;-44
2023/06/16 10:58:32;;;;;;;4.85;2.70;;;;;;;23.18;53.73;101081.59;4918617;29;20090;-46
2023/06/16 11:01:05;;;;;;;5.57;2.97;;;;;;;23.20;53.78;101089.63;4911177;29;20145;-44
2023/06/16 11:03:36;;;;;;;4.20;2.88;;;;;;;23.17;53.81;101093.28;4933638;29;20075;-44
2023/06/16 11:06:05;;;;;;;4.57;2.60;;;;;;;23.13;53.62;101084.09;4933667;29;20090;-44
2023/06/16 11:08:49;;;;;;;3.90;2.85;;;;;;;23.07;53.79;101089.41;4933850;29;20044;-44
2023/06/16 11:11:15;;;;;;;8.15;2.78;;;;;;;23.01;54.15;101093.91;4933811;29;20048;-44
2023/06/16 11:13:42;;;;;;;5.95;3.33;;;;;;;22.92;54.01;101104.91;4917007;29;20044;-44
2023/06/16 11:16:10;;;;;;;3.10;2.80;;;;;;;22.81;53.72;101101.41;4933380;29;20040;-44
2023/06/16 11:18:37;;;;;;;3.75;2.63;;;;;;;22.71;54.26;101113.63;4931316;29;20086;-45
2023/06/16 11:21:08;;;;;;;5.75;3.65;;;;;;;22.64;54.77;101110.84;4933438;29;20043;-44
2023/06/16 11:23:38;;;;;;;5.95;3.22;;;;;;;22.40;55.24;101112.66;4932875;29;20048;-44
2023/06/16 11:26:18;;;;;;;3.97;3.20;;;;;;;22.25;55.65;101109.16;4933758;29;20039;-44
2023/06/16 11:28:47;;;;;;;5.85;3.55;;;;;;;22.00;56.61;101114.19;4933745;29;20122;-45